Time;durP1;ratioP1;P1;durP2;ratioP2;P2;SDS_P1;SDS_P2;PMS_P1;PMS_P2;Temp;Humidity;BMP_temperature;BMP_pressure;BME280_temperature;BME280_humidity;BME280_pressure;Samples;Min_cycle;Max_cycle;Signal;HPM_P1;HPM_P2
2021/05/23 00:01:00;;;;;;;1.73;0.83;;;12.90;99.90;;;;;;5071680;28;20831;-50
2021/05/23 00:03:27;;;;;;;1.20;1.10;;;12.80;99.90;;;;;;5071538;28;20486;-50
2021/05/23 00:05:54;;;;;;;1.00;0.70;;;12.90;99.90;;;;;;5070654;28;20454;-50
2021/05/23 00:08:21;;;;;;;1.47;0.70;;;12.60;99.90;;;;;;5071351;28;20952;-50
2021/05/23 00:10:50;;;;;;;0.90;0.80;;;12.60;99.90;;;;;;5071619;28;20540;-50
2021/05/23 00:13:19;;;;;;;0.80;0.77;;;12.50;99.90;;;;;;5071650;28;20447;-50
2021/05/23 00:15:50;;;;;;;2.13;0.90;;;12.50;99.90;;;;;;5071248;28;20447;-50
2021/05/23 00:18:18;;;;;;;1.03;0.60;;;12.60;99.90;;;;;;5071151;28;20455;-50
2021/05/23 00:20:44;;;;;;;1.33;0.60;;;12.30;99.90;;;;;;5071064;28;20494;-50
2021/05/23 00:23:13;;;;;;;0.60;0.50;;;12.30;99.90;;;;;;5070359;28;20487;-50
2021/05/23 00:25:40;;;;;;;0.80;0.60;;;12.30;99.90;;;;;;5071423;28;20454;-50
2021/05/23 00:28:08;;;;;;;0.80;0.60;;;12.00;99.90;;;;;;5070838;28;20459;-50
2021/05/23 00:30:35;;;;;;;0.67;0.50;;;11.90;99.90;;;;;;5071424;28;20467;-50
2021/05/23 00:33:01;;;;;;;0.80;0.60;;;11.90;99.90;;;;;;5071412;28;20447;-50
2021/05/23 00:35:29;;;;;;;1.57;0.50;;;11.80;99.90;;;;;;5071422;28;20676;-50
2021/05/23 00:37:55;;;;;;;1.17;0.60;;;11.70;99.90;;;;;;5073774;28;20458;-53
2021/05/23 00:40:23;;;;;;;0.90;0.50;;;11.60;99.90;;;;;;5075415;28;20885;-53
2021/05/23 00:42:50;;;;;;;1.10;0.60;;;11.40;99.90;;;;;;5075224;28;20482;-53
2021/05/23 00:45:18;;;;;;;2.30;0.60;;;11.00;99.90;;;;;;5074989;28;20451;-52
2021/05/23 00:47:45;;;;;;;0.70;0.60;;;10.60;99.90;;;;;;5075069;28;20450;-53
2021/05/23 00:50:15;;;;;;;1.07;0.50;;;10.30;99.90;;;;;;5056638;28;20505;-53
2021/05/23 00:52:41;;;;;;;0.70;0.60;;;10.10;99.90;;;;;;5069488;28;20470;-53
2021/05/23 00:55:09;;;;;;;6.63;0.87;;;9.90;99.90;;;;;;5075139;28;20445;-53
2021/05/23 00:57:36;;;;;;;0.80;0.70;;;9.90;99.90;;;;;;5074646;28;20449;-53
2021/05/23 01:00:04;;;;;;;0.60;0.60;;;9.80;99.90;;;;;;5075140;28;20466;-53
2021/05/23 01:02:49;;;;;;;0.60;0.50;;;9.80;99.90;;;;;;5075350;28;20486;-53
2021/05/23 01:05:19;;;;;;;1.03;0.60;;;9.80;99.90;;;;;;5075059;28;20456;-53
2021/05/23 01:07:46;;;;;;;1.40;0.60;;;9.90;99.90;;;;;;5074230;28;20455;-53
2021/05/23 01:10:16;;;;;;;2.10;0.40;;;9.90;99.90;;;;;;5072587;28;20470;-53
2021/05/23 01:13:31;;;;;;;0.50;0.50;;;9.90;99.90;;;;;;5074554;28;20856;-53
2021/05/23 01:15:59;;;;;;;0.80;0.50;;;9.80;99.90;;;;;;5074729;28;20449;-52
2021/05/23 01:18:37;;;;;;;0.87;0.50;;;9.80;99.90;;;;;;5055405;28;20447;-53
2021/05/23 01:21:08;;;;;;;0.60;0.40;;;9.70;99.90;;;;;;5064370;28;21228;-52
2021/05/23 01:23:40;;;;;;;0.50;0.40;;;9.50;99.90;;;;;;5074742;28;20541;-52
2021/05/23 01:26:09;;;;;;;0.90;0.40;;;9.50;99.90;;;;;;5074146;28;20461;-52
2021/05/23 01:28:41;;;;;;;0.50;0.40;;;9.70;99.90;;;;;;5054663;28;20503;-53
2021/05/23 01:31:12;;;;;;;0.60;0.50;;;9.70;99.90;;;;;;5064392;28;20470;-53
2021/05/23 01:33:39;;;;;;;0.90;0.50;;;9.70;99.90;;;;;;5074679;28;20446;-52
2021/05/23 01:36:07;;;;;;;0.60;0.40;;;9.70;99.90;;;;;;5067048;28;20455;-52
2021/05/23 01:38:34;;;;;;;0.70;0.40;;;9.60;99.90;;;;;;5054526;28;20451;-52
2021/05/23 01:41:05;;;;;;;0.50;0.30;;;9.60;99.90;;;;;;5087886;22;20509;-56
2021/05/23 01:43:34;;;;;;;0.50;0.40;;;9.50;99.90;;;;;;5079547;28;21016;-56
2021/05/23 01:46:01;;;;;;;0.60;0.40;;;9.40;99.90;;;;;;5073975;28;20447;-56
2021/05/23 01:48:29;;;;;;;0.50;0.30;;;9.40;99.90;;;;;;5078593;28;20454;-56
2021/05/23 01:50:55;;;;;;;0.50;0.30;;;9.50;99.90;;;;;;5094435;28;20468;-56
2021/05/23 01:53:22;;;;;;;0.70;0.40;;;9.40;99.90;;;;;;5093098;28;20450;-56
2021/05/23 01:55:48;;;;;;;1.20;0.50;;;9.40;99.90;;;;;;5088362;28;20458;-56
2021/05/23 01:58:15;;;;;;;0.80;0.40;;;9.50;99.90;;;;;;5074395;28;20456;-56
2021/05/23 02:00:45;;;;;;;0.70;0.40;;;9.30;99.90;;;;;;5093137;28;20475;-56
2021/05/23 02:03:13;;;;;;;0.57;0.40;;;9.20;99.90;;;;;;5094168;28;20878;-56
2021/05/23 02:05:42;;;;;;;0.97;0.40;;;9.30;99.90;;;;;;5089645;28;20524;-56
2021/05/23 02:08:10;;;;;;;0.70;0.40;;;9.20;99.90;;;;;;5086819;28;20453;-56
2021/05/23 02:10:36;;;;;;;0.80;0.40;;;9.20;99.90;;;;;;5076117;28;20467;-56
2021/05/23 02:13:04;;;;;;;0.60;0.40;;;9.20;99.90;;;;;;5074169;28;20447;-56
2021/05/23 02:15:31;;;;;;;0.60;0.40;;;9.40;99.90;;;;;;5073568;28;20450;-56
2021/05/23 02:17:58;;;;;;;0.57;0.40;;;9.50;99.90;;;;;;5070795;28;20452;-56
2021/05/23 02:20:28;;;;;;;0.77;0.50;;;9.60;99.90;;;;;;5053928;28;20456;-56
2021/05/23 02:22:57;;;;;;;0.60;0.50;;;9.70;99.90;;;;;;5072454;28;21255;-56
2021/05/23 02:25:24;;;;;;;0.60;0.50;;;9.50;99.90;;;;;;5073070;28;20447;-56
2021/05/23 02:27:52;;;;;;;0.67;0.50;;;9.40;99.90;;;;;;5053797;28;20458;-56
2021/05/23 02:30:22;;;;;;;0.90;0.50;;;9.70;99.90;;;;;;5053724;28;20508;-56
2021/05/23 02:32:49;;;;;;;0.60;0.40;;;9.50;99.90;;;;;;5053951;28;20510;-56
2021/05/23 02:35:18;;;;;;;0.97;0.53;;;9.40;99.90;;;;;;5053693;28;20457;-56
2021/05/23 02:37:46;;;;;;;0.87;0.50;;;9.50;99.90;;;;;;5073215;28;20489;-56
2021/05/23 02:40:15;;;;;;;0.70;0.53;;;9.50;99.90;;;;;;5076514;28;20459;-56
2021/05/23 02:42:43;;;;;;;0.70;0.53;;;9.40;99.90;;;;;;5093649;28;21171;-56
2021/05/23 02:45:12;;;;;;;0.90;0.50;;;9.50;99.90;;;;;;5093517;28;21068;-56
2021/05/23 02:47:39;;;;;;;1.00;0.80;;;9.50;99.90;;;;;;5073697;28;20446;-56
2021/05/23 02:50:08;;;;;;;0.60;0.50;;;9.50;99.90;;;;;;5072941;28;20458;-56
2021/05/23 02:52:36;;;;;;;1.10;0.50;;;9.50;99.90;;;;;;5074272;28;20473;-56
2021/05/23 02:55:04;;;;;;;0.57;0.40;;;9.30;99.90;;;;;;5073037;28;20524;-56
2021/05/23 02:57:30;;;;;;;0.60;0.40;;;9.30;99.90;;;;;;5055593;28;20933;-56
2021/05/23 02:59:57;;;;;;;0.60;0.40;;;9.30;99.90;;;;;;5052863;28;20446;-56
2021/05/23 03:02:24;;;;;;;0.50;0.40;;;9.60;99.90;;;;;;5052831;28;21109;-56
2021/05/23 03:04:50;;;;;;;0.60;0.47;;;9.50;99.90;;;;;;5064267;28;20443;-56
2021/05/23 03:07:17;;;;;;;0.70;0.50;;;9.30;99.90;;;;;;5092843;28;20457;-56
2021/05/23 03:09:44;;;;;;;1.83;0.50;;;9.50;99.90;;;;;;5093164;28;20873;-56
2021/05/23 03:12:11;;;;;;;0.60;0.50;;;9.40;99.90;;;;;;5092897;28;21111;-56
2021/05/23 03:14:40;;;;;;;0.60;0.50;;;9.40;99.90;;;;;;5083769;28;20454;-56
2021/05/23 03:17:07;;;;;;;0.60;0.43;;;9.30;99.90;;;;;;5073029;28;20457;-56
2021/05/23 03:19:34;;;;;;;0.60;0.50;;;9.20;99.90;;;;;;5073431;28;20449;-56
2021/05/23 03:22:01;;;;;;;0.70;0.60;;;9.20;99.90;;;;;;5076848;28;20466;-55
2021/05/23 03:24:27;;;;;;;0.60;0.50;;;9.30;99.90;;;;;;5079028;28;20447;-56
2021/05/23 03:26:55;;;;;;;0.60;0.50;;;9.40;99.90;;;;;;5056310;28;20463;-56
2021/05/23 03:29:21;;;;;;;0.67;0.50;;;9.40;99.90;;;;;;5070018;28;20454;-56
2021/05/23 03:31:48;;;;;;;0.60;0.40;;;9.30;99.90;;;;;;5073306;28;20469;-56
2021/05/23 03:34:14;;;;;;;0.70;0.50;;;9.40;99.90;;;;;;5072980;28;21015;-56
2021/05/23 03:36:41;;;;;;;0.57;0.40;;;9.40;99.90;;;;;;5093447;28;20942;-56
2021/05/23 03:39:07;;;;;;;0.63;0.50;;;9.50;99.90;;;;;;5093619;28;20524;-56
2021/05/23 03:41:33;;;;;;;1.13;0.40;;;9.50;99.90;;;;;;5093431;28;20488;-56
2021/05/23 03:44:01;;;;;;;1.73;0.50;;;9.50;99.90;;;;;;5091583;28;20486;-56
2021/05/23 03:46:27;;;;;;;0.57;0.40;;;9.60;99.90;;;;;;5082852;28;20446;-56
2021/05/23 03:48:54;;;;;;;0.70;0.40;;;9.50;99.90;;;;;;5060081;28;20947;-56
2021/05/23 03:51:20;;;;;;;0.60;0.40;;;9.50;99.90;;;;;;5090155;28;20540;-56
2021/05/23 03:53:47;;;;;;;0.57;0.40;;;9.60;99.90;;;;;;5092248;28;20443;-56
2021/05/23 03:56:13;;;;;;;0.70;0.40;;;9.60;99.90;;;;;;5079833;28;20442;-56
2021/05/23 03:58:40;;;;;;;0.50;0.40;;;9.50;99.90;;;;;;5092291;28;20451;-56
2021/05/23 04:01:07;;;;;;;0.70;0.40;;;9.40;99.90;;;;;;5092172;28;20874;-56
2021/05/23 04:03:34;;;;;;;0.60;0.40;;;9.40;99.90;;;;;;5092243;28;20534;-56
2021/05/23 04:06:00;;;;;;;0.50;0.40;;;9.50;99.90;;;;;;5061476;28;20455;-56
2021/05/23 04:08:26;;;;;;;0.60;0.50;;;9.70;99.90;;;;;;5081992;28;20461;-56
2021/05/23 04:10:57;;;;;;;0.70;0.50;;;9.70;99.90;;;;;;5090026;28;20477;-56
2021/05/23 04:13:25;;;;;;;0.60;0.50;;;9.70;99.90;;;;;;5083732;28;20534;-56
2021/05/23 04:15:51;;;;;;;0.80;0.60;;;9.70;99.90;;;;;;5056563;28;20853;-56
2021/05/23 04:18:19;;;;;;;0.60;0.40;;;9.60;99.90;;;;;;5051873;28;20447;-56
2021/05/23 04:20:45;;;;;;;0.50;0.40;;;9.70;99.90;;;;;;5051692;28;20522;-56
2021/05/23 04:23:12;;;;;;;0.50;0.47;;;9.70;99.90;;;;;;5064088;28;20481;-56
2021/05/23 04:25:38;;;;;;;0.60;0.40;;;9.70;99.90;;;;;;5068718;28;20458;-56
2021/05/23 04:28:05;;;;;;;0.50;0.40;;;9.60;99.90;;;;;;5071862;28;20450;-56
2021/05/23 04:30:32;;;;;;;0.67;0.40;;;9.50;99.90;;;;;;5071429;28;20478;-56
2021/05/23 04:32:58;;;;;;;0.50;0.50;;;9.60;99.90;;;;;;5071704;28;20447;-56
2021/05/23 04:35:26;;;;;;;0.60;0.50;;;9.30;99.90;;;;;;5062784;28;20983;-56
2021/05/23 04:37:54;;;;;;;0.97;0.50;;;9.00;99.90;;;;;;5065274;28;20801;-56
2021/05/23 04:40:21;;;;;;;0.60;0.50;;;8.80;99.90;;;;;;5055114;28;20448;-56
2021/05/23 04:42:47;;;;;;;0.60;0.50;;;8.90;99.90;;;;;;5091806;28;20488;-56
2021/05/23 04:45:15;;;;;;;0.60;0.47;;;9.10;99.90;;;;;;5081552;28;20542;-56
2021/05/23 04:47:42;;;;;;;0.50;0.50;;;9.20;99.90;;;;;;5071597;28;20454;-56
2021/05/23 04:50:10;;;;;;;0.60;0.60;;;9.40;99.90;;;;;;5071563;28;20449;-56
2021/05/23 04:52:37;;;;;;;0.50;0.40;;;9.50;99.90;;;;;;5090470;28;20452;-56
2021/05/23 04:55:06;;;;;;;0.60;0.50;;;9.50;99.90;;;;;;5083188;28;20451;-56
2021/05/23 04:57:33;;;;;;;0.70;0.50;;;9.60;99.90;;;;;;5071556;28;20449;-56
2021/05/23 04:59:59;;;;;;;0.60;0.50;;;9.70;99.90;;;;;;5082101;28;20450;-56
2021/05/23 05:02:27;;;;;;;0.60;0.53;;;9.50;99.90;;;;;;5066057;28;20832;-56
2021/05/23 05:04:53;;;;;;;0.80;0.70;;;9.60;99.90;;;;;;5066017;28;20446;-56
2021/05/23 05:07:20;;;;;;;1.00;0.50;;;9.60;99.90;;;;;;5071265;28;20457;-56
2021/05/23 05:09:47;;;;;;;0.70;0.70;;;9.50;99.90;;;;;;5076951;28;20458;-56
2021/05/23 05:12:13;;;;;;;0.80;0.77;;;9.50;99.90;;;;;;5083594;28;20999;-56
2021/05/23 05:14:40;;;;;;;0.90;0.60;;;9.50;99.90;;;;;;5083484;28;20480;-56
2021/05/23 05:17:07;;;;;;;0.60;0.50;;;9.40;99.90;;;;;;5079557;28;20453;-56
2021/05/23 05:19:33;;;;;;;1.13;0.50;;;9.40;99.90;;;;;;5071206;28;20552;-56
2021/05/23 05:22:00;;;;;;;0.60;0.60;;;9.40;99.90;;;;;;5070997;28;20486;-56
2021/05/23 05:24:26;;;;;;;0.80;0.50;;;9.60;99.90;;;;;;5074734;28;21242;-56
2021/05/23 05:26:53;;;;;;;1.27;0.60;;;9.70;99.90;;;;;;5069389;28;20450;-56
2021/05/23 05:29:21;;;;;;;1.30;0.70;;;9.70;99.90;;;;;;5054859;28;20448;-56
2021/05/23 05:31:48;;;;;;;1.17;0.70;;;9.80;99.90;;;;;;5073853;28;20528;-56
2021/05/23 05:34:17;;;;;;;0.60;0.60;;;9.80;99.90;;;;;;5074802;28;20809;-56
2021/05/23 05:36:44;;;;;;;3.50;0.70;;;9.80;99.90;;;;;;5070319;28;20462;-56
2021/05/23 05:39:14;;;;;;;0.80;0.50;;;9.70;99.90;;;;;;5054755;28;20466;-56
2021/05/23 05:41:40;;;;;;;0.90;0.60;;;9.60;99.90;;;;;;5054354;28;20570;-56
2021/05/23 05:44:09;;;;;;;0.70;0.60;;;9.60;99.90;;;;;;5054254;28;20548;-56
2021/05/23 05:46:36;;;;;;;0.60;0.50;;;9.50;99.90;;;;;;5088908;28;20458;-56
2021/05/23 05:49:03;;;;;;;0.90;0.60;;;9.40;99.90;;;;;;5075771;28;20452;-56
2021/05/23 05:51:29;;;;;;;0.60;0.43;;;9.40;99.90;;;;;;5074473;28;20474;-56
2021/05/23 05:53:56;;;;;;;0.60;0.50;;;9.40;99.90;;;;;;5082064;28;20969;-56
2021/05/23 05:56:23;;;;;;;0.60;0.50;;;9.40;99.90;;;;;;5090890;28;20456;-56
2021/05/23 05:58:49;;;;;;;0.73;0.60;;;9.50;99.90;;;;;;5074456;28;20451;-56
2021/05/23 06:01:16;;;;;;;0.80;0.53;;;9.50;99.90;;;;;;5077008;28;20471;-56
2021/05/23 06:03:43;;;;;;;0.60;0.57;;;9.40;99.90;;;;;;5094546;28;20487;-56
2021/05/23 06:06:10;;;;;;;1.20;0.80;;;9.50;99.90;;;;;;5088505;28;20457;-56
2021/05/23 06:08:36;;;;;;;1.17;1.07;;;9.70;99.90;;;;;;5055598;28;20451;-56
2021/05/23 06:11:03;;;;;;;2.07;1.00;;;9.80;99.90;;;;;;5053992;28;20467;-56
2021/05/23 06:13:29;;;;;;;1.20;0.67;;;9.80;99.90;;;;;;5053956;28;20443;-56
2021/05/23 06:15:56;;;;;;;1.30;0.70;;;9.80;99.90;;;;;;5053840;28;20451;-56
2021/05/23 06:18:27;;;;;;;0.80;0.70;;;9.90;99.90;;;;;;5070444;28;20534;-56
2021/05/23 06:20:54;;;;;;;0.80;0.80;;;10.00;99.90;;;;;;5085664;28;20466;-56
2021/05/23 06:23:21;;;;;;;1.20;0.87;;;10.10;99.90;;;;;;5092441;28;20481;-56
2021/05/23 06:25:48;;;;;;;0.70;0.60;;;10.10;99.90;;;;;;5093873;28;20450;-56
2021/05/23 06:28:15;;;;;;;0.70;0.50;;;9.90;99.90;;;;;;5063143;28;20528;-56
2021/05/23 06:30:41;;;;;;;0.60;0.40;;;10.00;99.90;;;;;;5057931;28;20469;-56
2021/05/23 06:33:08;;;;;;;0.60;0.40;;;10.10;99.90;;;;;;5073883;28;20442;-56
2021/05/23 06:35:35;;;;;;;0.60;0.40;;;10.20;99.90;;;;;;5083635;28;20460;-56
2021/05/23 06:38:02;;;;;;;0.60;0.50;;;10.30;99.90;;;;;;5079230;28;20453;-56
2021/05/23 06:40:29;;;;;;;0.60;0.50;;;10.30;99.90;;;;;;5072958;28;20447;-56
2021/05/23 06:42:55;;;;;;;0.50;0.40;;;10.30;99.90;;;;;;5074692;28;20486;-56
2021/05/23 06:45:22;;;;;;;0.70;0.43;;;10.40;99.90;;;;;;5073716;28;20516;-56
2021/05/23 06:47:48;;;;;;;0.60;0.50;;;10.50;99.90;;;;;;5073353;28;20450;-56
2021/05/23 06:50:15;;;;;;;0.83;0.60;;;10.70;99.90;;;;;;5072428;28;20446;-56
2021/05/23 06:52:43;;;;;;;0.70;0.60;;;10.70;99.90;;;;;;5085617;28;20479;-56
2021/05/23 06:55:10;;;;;;;0.90;0.70;;;10.60;99.90;;;;;;5072924;28;20477;-57
2021/05/23 06:57:37;;;;;;;0.80;0.80;;;10.70;99.90;;;;;;5072780;28;20451;-56
2021/05/23 07:00:04;;;;;;;1.10;0.93;;;10.70;99.90;;;;;;5072958;28;20485;-56
2021/05/23 07:02:31;;;;;;;0.90;0.90;;;10.40;99.90;;;;;;5073122;28;20559;-56
2021/05/23 07:04:57;;;;;;;1.10;0.93;;;10.50;99.90;;;;;;5072896;28;20443;-56
2021/05/23 07:07:24;;;;;;;1.00;0.90;;;10.40;99.90;;;;;;5072272;28;20454;-56
2021/05/23 07:09:52;;;;;;;0.60;0.57;;;10.50;99.90;;;;;;5063316;28;20454;-56
2021/05/23 07:12:18;;;;;;;0.60;0.53;;;10.70;99.90;;;;;;5052861;28;20996;-56
2021/05/23 07:14:45;;;;;;;0.60;0.60;;;10.90;99.90;;;;;;5052814;28;20809;-57
2021/05/23 07:17:11;;;;;;;0.67;0.53;;;11.20;99.90;;;;;;5070980;28;20442;-56
2021/05/23 07:19:38;;;;;;;2.40;0.73;;;11.50;99.90;;;;;;5073151;28;20450;-56
2021/05/23 07:22:04;;;;;;;0.80;0.57;;;11.70;99.90;;;;;;5072558;28;20516;-56
2021/05/23 07:24:31;;;;;;;0.90;0.70;;;12.00;99.90;;;;;;5072276;28;20487;-56
2021/05/23 07:26:58;;;;;;;0.70;0.60;;;12.20;99.90;;;;;;5069554;28;20470;-56
2021/05/23 07:29:25;;;;;;;0.67;0.53;;;12.20;99.90;;;;;;5071224;28;20538;-56
2021/05/23 07:31:51;;;;;;;1.53;0.70;;;12.20;99.90;;;;;;5071462;28;20510;-57
2021/05/23 07:34:18;;;;;;;0.67;0.60;;;12.20;99.90;;;;;;5070694;28;20538;-56
2021/05/23 07:36:45;;;;;;;0.60;0.50;;;12.30;99.90;;;;;;5066893;28;20495;-56
2021/05/23 07:39:12;;;;;;;0.60;0.50;;;12.30;99.90;;;;;;5067806;28;20447;-56
2021/05/23 07:41:38;;;;;;;0.67;0.57;;;12.50;99.90;;;;;;5068532;28;20470;-57
2021/05/23 07:44:09;;;;;;;0.80;0.50;;;12.70;99.90;;;;;;5091685;22;21342;-54
2021/05/23 07:46:36;;;;;;;0.60;0.50;;;12.80;99.90;;;;;;5050982;28;20455;-56
2021/05/23 07:49:02;;;;;;;0.80;0.50;;;13.10;99.90;;;;;;5048239;28;20460;-56
2021/05/23 07:51:29;;;;;;;0.67;0.50;;;13.10;99.90;;;;;;5043678;28;20452;-56
2021/05/23 07:53:55;;;;;;;0.60;0.40;;;13.20;99.90;;;;;;5050701;28;20882;-56
2021/05/23 07:56:22;;;;;;;0.80;0.40;;;13.10;99.90;;;;;;5046699;28;20510;-56
2021/05/23 07:58:50;;;;;;;1.47;0.50;;;12.90;99.90;;;;;;5048069;28;20467;-56
2021/05/23 08:01:17;;;;;;;0.50;0.40;;;12.80;99.90;;;;;;5050934;28;20456;-56
2021/05/23 08:03:44;;;;;;;0.60;0.50;;;12.60;99.90;;;;;;5050719;28;21067;-55
2021/05/23 08:06:12;;;;;;;0.60;0.50;;;12.70;99.90;;;;;;5050830;28;20455;-55
2021/05/23 08:08:38;;;;;;;0.70;0.50;;;13.30;99.90;;;;;;5051538;28;20474;-56
2021/05/23 08:11:05;;;;;;;0.87;0.50;;;14.80;99.90;;;;;;5051371;28;20826;-57
2021/05/23 08:13:32;;;;;;;0.60;0.40;;;15.80;99.90;;;;;;5050105;28;20475;-56
2021/05/23 08:15:59;;;;;;;0.60;0.60;;;16.20;99.90;;;;;;5048211;28;20476;-56
2021/05/23 08:18:29;;;;;;;0.60;0.53;;;16.20;99.90;;;;;;5050330;28;20524;-56
2021/05/23 08:20:57;;;;;;;1.47;0.60;;;16.20;99.90;;;;;;5035686;28;20540;-56
2021/05/23 08:23:24;;;;;;;0.60;0.50;;;16.30;99.90;;;;;;5050227;28;20475;-57
2021/05/23 08:25:51;;;;;;;0.60;0.50;;;16.00;99.90;;;;;;5044612;28;20480;-56
2021/05/23 08:28:18;;;;;;;0.80;0.60;;;16.00;99.90;;;;;;5051253;28;20466;-56
2021/05/23 08:30:45;;;;;;;0.67;0.60;;;15.60;99.90;;;;;;5050257;28;20506;-57
2021/05/23 08:33:12;;;;;;;1.13;0.70;;;15.40;99.90;;;;;;5051083;28;20877;-56
2021/05/23 08:35:39;;;;;;;0.73;0.60;;;15.30;99.90;;;;;;5049761;28;20472;-56
2021/05/23 08:38:06;;;;;;;0.70;0.57;;;14.20;99.90;;;;;;5051278;28;20447;-56
2021/05/23 08:40:33;;;;;;;1.33;0.53;;;13.60;99.90;;;;;;5051257;28;20483;-56
2021/05/23 08:43:01;;;;;;;0.60;0.50;;;13.10;99.90;;;;;;5051269;28;20472;-56
2021/05/23 08:45:28;;;;;;;1.33;0.60;;;12.90;99.90;;;;;;5049083;28;20519;-56
2021/05/23 08:47:55;;;;;;;0.60;0.60;;;12.90;99.90;;;;;;5041693;28;20445;-56
2021/05/23 08:50:24;;;;;;;0.90;0.70;;;13.10;99.90;;;;;;5038656;28;20514;-56
2021/05/23 08:52:55;;;;;;;1.37;0.57;;;14.10;99.90;;;;;;5048806;28;20455;-56
2021/05/23 08:55:22;;;;;;;0.70;0.60;;;15.30;99.90;;;;;;5049728;28;20471;-56
2021/05/23 08:57:50;;;;;;;0.70;0.70;;;16.40;99.90;;;;;;5051891;28;20508;-56
2021/05/23 09:00:17;;;;;;;0.77;0.77;;;17.30;99.90;;;;;;5053855;28;20466;-56
2021/05/23 09:02:52;;;;;;;1.13;0.70;;;17.90;99.90;;;;;;5054313;28;20513;-56
2021/05/23 09:05:30;;;;;;;0.67;0.60;;;18.10;99.90;;;;;;5050895;28;20473;-56
2021/05/23 09:07:59;;;;;;;0.70;0.70;;;17.90;99.90;;;;;;5055308;28;20439;-56
2021/05/23 09:10:27;;;;;;;0.90;0.70;;;18.50;99.90;;;;;;5051130;28;20440;-57
2021/05/23 09:12:54;;;;;;;1.60;0.60;;;18.70;99.90;;;;;;5045467;28;20792;-57
2021/05/23 09:15:21;;;;;;;0.83;0.70;;;18.60;99.90;;;;;;5034523;28;20272;-56
2021/05/23 09:17:59;;;;;;;0.73;0.63;;;18.90;99.90;;;;;;5040277;28;20449;-56
2021/05/23 09:20:26;;;;;;;1.40;0.63;;;18.60;99.90;;;;;;5048957;28;20447;-56
2021/05/23 09:22:53;;;;;;;0.80;0.70;;;18.00;99.90;;;;;;5053859;28;20475;-56
2021/05/23 09:25:32;;;;;;;1.80;0.83;;;17.90;99.90;;;;;;5053802;28;20471;-56
2021/05/23 09:28:00;;;;;;;1.10;1.00;;;17.90;99.90;;;;;;5051424;28;20975;-56
2021/05/23 09:30:29;;;;;;;1.60;0.70;;;18.30;99.90;;;;;;5050981;28;20456;-56
2021/05/23 09:32:57;;;;;;;0.60;0.60;;;19.30;99.90;;;;;;5035801;28;20827;-56
2021/05/23 09:35:24;;;;;;;0.90;0.77;;;20.20;99.90;;;;;;5046760;28;20871;-54
2021/05/23 09:38:00;;;;;;;1.10;0.70;;;20.70;99.90;;;;;;5054541;28;20450;-54
2021/05/23 09:40:29;;;;;;;0.83;0.60;;;21.20;99.90;;;;;;5054169;28;20454;-54
2021/05/23 09:42:59;;;;;;;0.60;0.60;;;21.20;99.90;;;;;;5054123;28;20498;-55
2021/05/23 09:45:39;;;;;;;1.00;0.70;;;21.20;99.90;;;;;;5051433;28;20865;-54
2021/05/23 09:48:07;;;;;;;0.80;0.80;;;19.40;99.90;;;;;;5049243;28;20444;-57
2021/05/23 09:50:36;;;;;;;0.60;0.53;;;17.40;99.90;;;;;;5054134;28;20497;-56
2021/05/23 09:53:02;;;;;;;0.83;0.70;;;15.70;99.90;;;;;;5053827;28;20505;-56
2021/05/23 09:55:29;;;;;;;1.40;0.80;;;12.90;99.90;;;;;;5037178;28;20904;-57
2021/05/23 09:57:57;;;;;;;2.10;1.00;;;12.10;99.90;;;;;;5034551;28;20464;-55
2021/05/23 10:00:23;;;;;;;0.67;0.60;;;11.40;99.90;;;;;;5042208;28;21012;-54
2021/05/23 10:02:52;;;;;;;0.70;0.70;;;11.00;99.90;;;;;;5054478;28;20483;-54
2021/05/23 10:05:19;;;;;;;0.87;0.70;;;11.50;99.90;;;;;;5052989;28;20565;-54
2021/05/23 10:07:46;;;;;;;4.60;0.80;;;13.00;99.90;;;;;;5051880;28;21173;-54
2021/05/23 10:10:13;;;;;;;0.70;0.57;;;14.00;99.90;;;;;;5052796;28;20454;-56
2021/05/23 10:12:41;;;;;;;1.17;0.60;;;15.00;99.90;;;;;;5053891;28;20452;-57
2021/05/23 10:15:10;;;;;;;1.60;0.80;;;16.00;99.90;;;;;;5053242;28;20552;-57
2021/05/23 10:17:39;;;;;;;1.87;0.70;;;17.00;99.90;;;;;;5053039;28;20447;-57
2021/05/23 10:20:08;;;;;;;3.23;0.80;;;16.90;99.90;;;;;;5053459;28;20872;-57
2021/05/23 10:22:35;;;;;;;0.87;0.80;;;16.90;99.90;;;;;;5053685;28;20456;-57
2021/05/23 10:25:04;;;;;;;1.00;0.80;;;17.30;99.90;;;;;;5035864;28;20472;-57
2021/05/23 10:27:38;;;;;;;0.87;0.60;;;17.60;99.90;;;;;;5046192;28;20451;-56
2021/05/23 10:30:07;;;;;;;1.47;0.60;;;17.70;99.90;;;;;;5053292;28;20820;-57
2021/05/23 10:32:36;;;;;;;0.60;0.60;;;17.30;99.90;;;;;;5052316;28;20837;-57
2021/05/23 10:35:16;;;;;;;0.53;0.40;;;17.30;99.90;;;;;;5053076;28;20557;-57
2021/05/23 10:37:44;;;;;;;0.60;0.50;;;17.40;99.90;;;;;;5053000;28;20459;-57
2021/05/23 10:40:22;;;;;;;0.70;0.50;;;17.00;99.90;;;;;;5053146;28;20451;-57
2021/05/23 10:42:53;;;;;;;0.60;0.50;;;17.10;99.90;;;;;;5052851;28;20504;-57
2021/05/23 10:45:27;;;;;;;1.57;0.57;;;17.00;99.90;;;;;;5052630;28;20522;-57
2021/05/23 10:47:56;;;;;;;0.70;0.50;;;16.80;99.90;;;;;;5033422;28;20448;-56
2021/05/23 10:50:33;;;;;;;0.50;0.40;;;17.00;99.90;;;;;;5034302;28;20510;-56
2021/05/23 10:53:00;;;;;;;0.50;0.40;;;16.60;99.90;;;;;;5033062;28;20452;-56
2021/05/23 10:55:27;;;;;;;4.37;0.40;;;16.60;99.90;;;;;;5043994;28;20480;-56
2021/05/23 10:57:56;;;;;;;0.60;0.40;;;16.80;99.90;;;;;;5052853;28;20502;-56
2021/05/23 11:00:24;;;;;;;0.60;0.43;;;17.20;99.90;;;;;;5052554;28;20455;-56
2021/05/23 11:02:52;;;;;;;0.50;0.40;;;17.20;99.90;;;;;;5050404;28;20448;-55
2021/05/23 11:05:23;;;;;;;0.70;0.40;;;17.40;99.90;;;;;;5052118;28;21062;-54
2021/05/23 11:07:58;;;;;;;1.67;0.50;;;17.60;99.90;;;;;;5050670;28;20954;-54
2021/05/23 11:10:26;;;;;;;0.63;0.63;;;17.20;99.90;;;;;;5050598;28;20443;-54
2021/05/23 11:12:56;;;;;;;0.80;0.50;;;17.30;99.90;;;;;;5052262;28;20448;-54
2021/05/23 11:15:24;;;;;;;0.70;0.50;;;17.60;99.90;;;;;;5051968;28;20467;-54
2021/05/23 11:17:52;;;;;;;0.73;0.60;;;17.60;99.90;;;;;;5052073;28;20458;-53
2021/05/23 11:20:21;;;;;;;0.60;0.50;;;17.00;99.90;;;;;;5052134;28;20493;-54
2021/05/23 11:22:59;;;;;;;1.47;0.60;;;15.80;99.90;;;;;;5051695;28;20539;-54
2021/05/23 11:25:26;;;;;;;1.10;0.60;;;15.80;99.90;;;;;;5051401;28;20667;-55
2021/05/23 11:27:58;;;;;;;0.93;0.87;;;15.70;99.90;;;;;;5052408;28;20452;-55
2021/05/23 11:30:27;;;;;;;3.63;1.20;;;15.40;99.90;;;;;;5051702;28;20460;-54
2021/05/23 11:33:01;;;;;;;0.90;0.80;;;15.10;99.90;;;;;;5052082;28;20475;-55
2021/05/23 11:35:27;;;;;;;0.80;0.70;;;15.00;99.90;;;;;;5051726;28;20463;-54
2021/05/23 11:37:54;;;;;;;0.90;0.60;;;15.10;99.90;;;;;;5052081;28;20458;-54
2021/05/23 11:40:22;;;;;;;1.90;0.70;;;15.60;99.90;;;;;;5052093;28;20458;-54
2021/05/23 11:42:49;;;;;;;1.00;0.70;;;15.70;99.90;;;;;;5050953;28;20463;-55
2021/05/23 11:45:23;;;;;;;0.60;0.60;;;16.10;99.90;;;;;;5051566;28;20476;-55
2021/05/23 11:47:51;;;;;;;3.50;0.70;;;16.50;99.90;;;;;;5051634;28;20459;-55
2021/05/23 11:50:23;;;;;;;1.00;0.90;;;16.40;99.90;;;;;;5051513;28;20456;-52
2021/05/23 11:52:54;;;;;;;1.20;0.70;;;16.10;99.90;;;;;;5048265;28;20874;-55
2021/05/23 11:55:24;;;;;;;0.87;0.70;;;16.30;99.90;;;;;;5035287;28;20905;-55
2021/05/23 11:57:51;;;;;;;1.67;0.90;;;16.40;99.90;;;;;;5050801;28;20465;-55
2021/05/23 12:00:20;;;;;;;0.60;0.60;;;16.30;99.90;;;;;;5046937;28;21008;-55
2021/05/23 12:02:55;;;;;;;0.80;0.60;;;16.30;99.90;;;;;;5051007;28;20480;-55
2021/05/23 12:05:24;;;;;;;1.50;0.60;;;16.40;99.90;;;;;;5038107;28;20846;-56
2021/05/23 12:07:52;;;;;;;0.60;0.60;;;16.50;99.90;;;;;;5050665;28;20475;-54
2021/05/23 12:10:26;;;;;;;0.77;0.77;;;15.80;99.90;;;;;;5039968;28;20452;-55
2021/05/23 12:12:52;;;;;;;0.80;0.70;;;15.30;99.90;;;;;;5048831;28;21132;-55
2021/05/23 12:15:20;;;;;;;1.63;0.60;;;14.80;99.90;;;;;;5049115;28;20471;-55
2021/05/23 12:17:54;;;;;;;0.80;0.80;;;14.70;99.90;;;;;;5050171;28;20440;-55
2021/05/23 12:20:21;;;;;;;3.77;0.67;;;14.40;99.90;;;;;;5049284;28;20456;-54
2021/05/23 12:22:51;;;;;;;1.40;0.90;;;14.20;99.90;;;;;;5051321;28;20505;-54
2021/05/23 12:25:20;;;;;;;2.63;1.03;;;14.40;99.90;;;;;;5049705;28;20764;-54
2021/05/23 12:27:50;;;;;;;1.33;0.70;;;14.60;99.90;;;;;;5050666;28;20463;-54
2021/05/23 12:30:18;;;;;;;0.80;0.80;;;15.20;99.90;;;;;;5050562;28;20457;-54
2021/05/23 12:32:52;;;;;;;2.03;0.70;;;15.50;99.90;;;;;;5050720;28;20448;-54
2021/05/23 12:35:20;;;;;;;0.90;0.80;;;16.00;99.90;;;;;;5050936;28;20472;-54
2021/05/23 12:37:55;;;;;;;0.73;0.73;;;15.70;99.90;;;;;;5050905;28;20444;-54
2021/05/23 12:40:25;;;;;;;1.57;0.90;;;15.30;99.90;;;;;;5050349;28;20884;-54
2021/05/23 12:42:53;;;;;;;1.70;0.87;;;14.60;99.90;;;;;;5049245;28;20514;-54
2021/05/23 12:45:20;;;;;;;1.17;0.70;;;14.50;99.90;;;;;;5050914;28;21036;-54
2021/05/23 12:47:55;;;;;;;0.77;0.60;;;14.60;99.90;;;;;;5051515;28;20455;-54
2021/05/23 12:50:39;;;;;;;1.57;0.80;;;14.50;99.90;;;;;;5050997;28;20447;-54
2021/05/23 12:53:06;;;;;;;0.93;0.80;;;14.60;99.90;;;;;;5050939;28;21022;-54
2021/05/23 12:55:38;;;;;;;1.37;0.80;;;14.60;99.90;;;;;;5051032;28;20558;-54